Terminal Aerodrome Forecast
Issued by NWS

Home | Current Version | Previous Version | Text Only | Print | Product List | Glossary On
Versions: 1 2 3 4 5 6 7 8 9 10 11 12 13 14 15 16
000
FTAK31 PAJN 221723
TAFAGY
TAF
PAGY 221723Z 2218/2318 05017G27KT P6SM OVC060
     FM222200 06014G18KT P6SM -SHSN OVC040
     FM230200 16011KT 2SM -SN BR OVC015
     FM230700 17009G16KT 4SM -SHSN BR OVC030
     FM231000 18012G22KT 6SM -SHSN OVC040
     FM231400 05010KT P6SM -SHSN OVC040
      AMD LTD TO CLD VIS AND WIND=

USA.gov is the U.S. government's official web portal to all federal, state and local government web resources and services.